sensor_id;sensor_type;location;lat;lon;timestamp;temperature;humidity
75964;DHT22;65820;44.726;37.764;2023-02-28T17:00:46;19.46;41.58
75964;DHT22;65820;44.726;37.764;2023-02-28T17:01:48;19.43;41.13
75964;DHT22;65820;44.726;37.764;2023-02-28T17:02:50;19.41;42.66
75964;DHT22;65820;44.726;37.764;2023-02-28T17:03:52;19.39;41.26
75964;DHT22;65820;44.726;37.764;2023-02-28T17:04:53;19.38;41.32
75964;DHT22;65820;44.726;37.764;2023-02-28T17:05:55;19.35;41.22
75964;DHT22;65820;44.726;37.764;2023-02-28T17:06:57;19.33;41.00
75964;DHT22;65820;44.726;37.764;2023-02-28T17:07:58;19.32;41.37
75964;DHT22;65820;44.726;37.764;2023-02-28T17:09:00;19.30;41.10
75964;DHT22;65820;44.726;37.764;2023-02-28T17:11:12;19.27;40.96
75964;DHT22;65820;44.726;37.764;2023-02-28T17:12:14;19.25;41.20
75964;DHT22;65820;44.726;37.764;2023-02-28T17:13:16;19.24;40.77
75964;DHT22;65820;44.726;37.764;2023-02-28T17:14:17;19.26;42.15
75964;DHT22;65820;44.726;37.764;2023-02-28T17:15:20;19.25;42.43
75964;DHT22;65820;44.726;37.764;2023-02-28T17:16:25;19.27;43.32
75964;DHT22;65820;44.726;37.764;2023-02-28T17:17:29;19.30;43.22
75964;DHT22;65820;44.726;37.764;2023-02-28T17:18:30;19.30;43.65
75964;DHT22;65820;44.726;37.764;2023-02-28T17:19:35;19.32;43.21
75964;DHT22;65820;44.726;37.764;2023-02-28T17:20:39;19.33;42.45
75964;DHT22;65820;44.726;37.764;2023-02-28T17:21:43;19.32;41.84
75964;DHT22;65820;44.726;37.764;2023-02-28T17:22:45;19.32;42.52
75964;DHT22;65820;44.726;37.764;2023-02-28T17:23:47;19.35;42.67
75964;DHT22;65820;44.726;37.764;2023-02-28T17:24:48;19.36;42.87
75964;DHT22;65820;44.726;37.764;2023-02-28T17:25:50;19.37;43.29
75964;DHT22;65820;44.726;37.764;2023-02-28T17:26:54;19.36;43.30
75964;DHT22;65820;44.726;37.764;2023-02-28T17:27:56;19.36;43.35
75964;DHT22;65820;44.726;37.764;2023-02-28T17:28:58;19.36;43.47
75964;DHT22;65820;44.726;37.764;2023-02-28T17:29:59;19.36;43.42
75964;DHT22;65820;44.726;37.764;2023-02-28T17:31:02;19.37;43.84
75964;DHT22;65820;44.726;37.764;2023-02-28T17:32:03;19.38;43.75
75964;DHT22;65820;44.726;37.764;2023-02-28T17:33:05;19.38;43.85
75964;DHT22;65820;44.726;37.764;2023-02-28T17:34:06;19.39;43.96
75964;DHT22;65820;44.726;37.764;2023-02-28T17:35:08;19.39;43.92
75964;DHT22;65820;44.726;37.764;2023-02-28T17:36:17;19.39;44.00
75964;DHT22;65820;44.726;37.764;2023-02-28T17:37:23;19.40;44.13
75964;DHT22;65820;44.726;37.764;2023-02-28T17:38:25;19.39;44.31
75964;DHT22;65820;44.726;37.764;2023-02-28T17:39:26;19.41;44.14
75964;DHT22;65820;44.726;37.764;2023-02-28T17:40:28;19.41;44.40
75964;DHT22;65820;44.726;37.764;2023-02-28T17:41:30;19.41;44.35
75964;DHT22;65820;44.726;37.764;2023-02-28T17:42:31;19.42;44.38
75964;DHT22;65820;44.726;37.764;2023-02-28T17:43:33;19.43;44.41
75964;DHT22;65820;44.726;37.764;2023-02-28T17:44:35;19.42;44.36
75964;DHT22;65820;44.726;37.764;2023-02-28T17:45:36;19.43;44.46
75964;DHT22;65820;44.726;37.764;2023-02-28T17:47:26;19.44;44.98
75964;DHT22;65820;44.726;37.764;2023-02-28T17:48:27;19.46;45.12
75964;DHT22;65820;44.726;37.764;2023-02-28T17:49:29;19.47;45.02
75964;DHT22;65820;44.726;37.764;2023-02-28T17:50:34;19.50;44.81
75964;DHT22;65820;44.726;37.764;2023-02-28T17:51:36;19.51;45.10
75964;DHT22;65820;44.726;37.764;2023-02-28T17:52:37;19.53;45.04
75964;DHT22;65820;44.726;37.764;2023-02-28T17:56:03;19.53;45.15
75964;DHT22;65820;44.726;37.764;2023-02-28T17:57:05;19.53;44.94
75964;DHT22;65820;44.726;37.764;2023-02-28T17:58:09;19.52;45.35
75964;DHT22;65820;44.726;37.764;2023-02-28T17:59:13;19.53;45.35
75964;DHT22;65820;44.726;37.764;2023-02-28T18:00:16;19.54;45.45
75964;DHT22;65820;44.726;37.764;2023-02-28T18:01:18;19.55;50.25
75964;DHT22;65820;44.726;37.764;2023-02-28T18:02:21;19.55;45.86
75964;DHT22;65820;44.726;37.764;2023-02-28T18:04:10;19.56;45.61
75964;DHT22;65820;44.726;37.764;2023-02-28T18:05:12;19.56;45.51
75964;DHT22;65820;44.726;37.764;2023-02-28T18:06:21;19.56;45.47
75964;DHT22;65820;44.726;37.764;2023-02-28T18:07:24;19.56;45.55
75964;DHT22;65820;44.726;37.764;2023-02-28T18:08:26;19.55;45.51
75964;DHT22;65820;44.726;37.764;2023-02-28T18:09:27;19.56;45.64
75964;DHT22;65820;44.726;37.764;2023-02-28T18:10:29;19.56;45.56
75964;DHT22;65820;44.726;37.764;2023-02-28T18:11:34;19.54;45.70
75964;DHT22;65820;44.726;37.764;2023-02-28T18:12:42;19.55;45.73
75964;DHT22;65820;44.726;37.764;2023-02-28T18:13:52;19.53;45.73
75964;DHT22;65820;44.726;37.764;2023-02-28T18:14:54;19.53;45.75
75964;DHT22;65820;44.726;37.764;2023-02-28T18:15:55;19.52;45.80
75964;DHT22;65820;44.726;37.764;2023-02-28T18:16:56;19.52;45.80
75964;DHT22;65820;44.726;37.764;2023-02-28T18:17:58;19.52;46.02
75964;DHT22;65820;44.726;37.764;2023-02-28T18:18:59;19.53;45.97
75964;DHT22;65820;44.726;37.764;2023-02-28T18:20:02;19.51;46.07
75964;DHT22;65820;44.726;37.764;2023-02-28T18:21:09;19.51;46.12
75964;DHT22;65820;44.726;37.764;2023-02-28T18:22:58;19.52;46.13
75964;DHT22;65820;44.726;37.764;2023-02-28T18:24:00;19.50;46.11
75964;DHT22;65820;44.726;37.764;2023-02-28T18:25:49;19.51;46.12
75964;DHT22;65820;44.726;37.764;2023-02-28T18:26:51;19.50;46.23
75964;DHT22;65820;44.726;37.764;2023-02-28T18:27:53;19.50;46.25
75964;DHT22;65820;44.726;37.764;2023-02-28T18:29:46;19.48;46.28
75964;DHT22;65820;44.726;37.764;2023-02-28T18:30:49;19.47;46.44
75964;DHT22;65820;44.726;37.764;2023-02-28T18:32:38;19.48;46.47
75964;DHT22;65820;44.726;37.764;2023-02-28T18:33:43;19.47;46.39
75964;DHT22;65820;44.726;37.764;2023-02-28T18:34:44;19.47;46.41
75964;DHT22;65820;44.726;37.764;2023-02-28T18:36:36;19.47;46.51
75964;DHT22;65820;44.726;37.764;2023-02-28T18:37:41;19.47;46.53
75964;DHT22;65820;44.726;37.764;2023-02-28T18:38:42;19.46;46.67
75964;DHT22;65820;44.726;37.764;2023-02-28T18:40:33;19.46;46.47
75964;DHT22;65820;44.726;37.764;2023-02-28T18:41:34;19.45;46.41
75964;DHT22;65820;44.726;37.764;2023-02-28T18:42:37;19.46;46.67
75964;DHT22;65820;44.726;37.764;2023-02-28T18:43:39;19.45;46.68
75964;DHT22;65820;44.726;37.764;2023-02-28T18:44:40;19.45;46.56
75964;DHT22;65820;44.726;37.764;2023-02-28T18:45:42;19.45;46.77
75964;DHT22;65820;44.726;37.764;2023-02-28T18:47:31;19.45;47.05
75964;DHT22;65820;44.726;37.764;2023-02-28T18:48:33;19.46;47.02
75964;DHT22;65820;44.726;37.764;2023-02-28T18:49:34;19.46;47.13
75964;DHT22;65820;44.726;37.764;2023-02-28T18:50:38;19.48;47.13
75964;DHT22;65820;44.726;37.764;2023-02-28T18:51:39;19.48;47.23
75964;DHT22;65820;44.726;37.764;2023-02-28T18:52:44;19.50;47.17
75964;DHT22;65820;44.726;37.764;2023-02-28T18:53:46;19.50;47.29
75964;DHT22;65820;44.726;37.764;2023-02-28T18:54:48;19.52;47.30
75964;DHT22;65820;44.726;37.764;2023-02-28T18:55:49;19.52;47.34
75964;DHT22;65820;44.726;37.764;2023-02-28T18:56:50;19.53;47.30
75964;DHT22;65820;44.726;37.764;2023-02-28T18:59:40;19.55;46.73
75964;DHT22;65820;44.726;37.764;2023-02-28T19:01:43;19.54;46.72
75964;DHT22;65820;44.726;37.764;2023-02-28T19:03:49;19.53;46.72
75964;DHT22;65820;44.726;37.764;2023-02-28T19:04:51;19.52;46.59
75964;DHT22;65820;44.726;37.764;2023-02-28T19:05:56;19.53;46.47
75964;DHT22;65820;44.726;37.764;2023-02-28T19:06:58;19.51;46.70
75964;DHT22;65820;44.726;37.764;2023-02-28T19:08:46;19.51;46.53
75964;DHT22;65820;44.726;37.764;2023-02-28T19:10:44;19.51;46.73
75964;DHT22;65820;44.726;37.764;2023-02-28T19:12:41;19.48;47.02
75964;DHT22;65820;44.726;37.764;2023-02-28T19:13:45;19.47;47.02
75964;DHT22;65820;44.726;37.764;2023-02-28T19:14:47;19.48;46.91
75964;DHT22;65820;44.726;37.764;2023-02-28T19:16:37;19.47;47.06
75964;DHT22;65820;44.726;37.764;2023-02-28T19:17:41;19.47;47.02
75964;DHT22;65820;44.726;37.764;2023-02-28T19:18:43;19.47;47.05
75964;DHT22;65820;44.726;37.764;2023-02-28T19:20:33;19.48;47.06
75964;DHT22;65820;44.726;37.764;2023-02-28T19:23:18;19.47;47.02
75964;DHT22;65820;44.726;37.764;2023-02-28T19:24:19;19.45;47.15
75964;DHT22;65820;44.726;37.764;2023-02-28T19:25:22;19.46;47.13
75964;DHT22;65820;44.726;37.764;2023-02-28T19:26:26;19.45;47.12
75964;DHT22;65820;44.726;37.764;2023-02-28T19:27:28;19.45;47.19
75964;DHT22;65820;44.726;37.764;2023-02-28T19:29:25;19.45;47.19
75964;DHT22;65820;44.726;37.764;2023-02-28T19:30:27;19.45;47.15
75964;DHT22;65820;44.726;37.764;2023-02-28T19:31:28;19.45;47.09
75964;DHT22;65820;44.726;37.764;2023-02-28T19:32:30;19.46;47.26
75964;DHT22;65820;44.726;37.764;2023-02-28T19:33:32;19.45;47.40
75964;DHT22;65820;44.726;37.764;2023-02-28T19:34:33;19.44;47.18
75964;DHT22;65820;44.726;37.764;2023-02-28T19:35:35;19.47;47.51
75964;DHT22;65820;44.726;37.764;2023-02-28T19:37:24;19.48;47.63
75964;DHT22;65820;44.726;37.764;2023-02-28T19:38:26;19.51;47.59
75964;DHT22;65820;44.726;37.764;2023-02-28T19:39:28;19.50;47.47
75964;DHT22;65820;44.726;37.764;2023-02-28T19:40:29;19.50;47.44
75964;DHT22;65820;44.726;37.764;2023-02-28T19:42:19;19.50;47.40
75964;DHT22;65820;44.726;37.764;2023-02-28T19:45:11;19.51;47.34
75964;DHT22;65820;44.726;37.764;2023-02-28T19:46:14;19.50;47.26
75964;DHT22;65820;44.726;37.764;2023-02-28T19:47:16;19.47;47.13
75964;DHT22;65820;44.726;37.764;2023-02-28T19:48:18;19.48;46.99
75964;DHT22;65820;44.726;37.764;2023-02-28T19:49:25;19.48;47.09
75964;DHT22;65820;44.726;37.764;2023-02-28T19:51:14;19.47;46.71
75964;DHT22;65820;44.726;37.764;2023-02-28T19:52:16;19.46;46.63
75964;DHT22;65820;44.726;37.764;2023-02-28T19:53:17;19.45;46.71
75964;DHT22;65820;44.726;37.764;2023-02-28T19:54:19;19.46;46.69
75964;DHT22;65820;44.726;37.764;2023-02-28T19:56:57;19.44;46.73
75964;DHT22;65820;44.726;37.764;2023-02-28T19:58:56;19.43;46.86
75964;DHT22;65820;44.726;37.764;2023-02-28T19:59:58;19.42;46.89
75964;DHT22;65820;44.726;37.764;2023-02-28T20:01:14;19.41;46.91
75964;DHT22;65820;44.726;37.764;2023-02-28T20:02:18;19.41;46.92
75964;DHT22;65820;44.726;37.764;2023-02-28T20:03:21;19.40;46.86
75964;DHT22;65820;44.726;37.764;2023-02-28T20:04:24;19.40;46.89
75964;DHT22;65820;44.726;37.764;2023-02-28T20:05:26;19.39;46.90
75964;DHT22;65820;44.726;37.764;2023-02-28T20:06:30;19.39;46.86
75964;DHT22;65820;44.726;37.764;2023-02-28T20:08:28;19.39;46.80
75964;DHT22;65820;44.726;37.764;2023-02-28T20:09:30;19.39;46.84
75964;DHT22;65820;44.726;37.764;2023-02-28T20:11:53;19.36;47.02
75964;DHT22;65820;44.726;37.764;2023-02-28T20:14:02;19.36;47.65
75964;DHT22;65820;44.726;37.764;2023-02-28T20:15:53;19.38;47.52
75964;DHT22;65820;44.726;37.764;2023-02-28T20:16:55;19.40;47.70
75964;DHT22;65820;44.726;37.764;2023-02-28T20:18:48;19.41;47.73
75964;DHT22;65820;44.726;37.764;2023-02-28T20:19:51;19.44;47.88
75964;DHT22;65820;44.726;37.764;2023-02-28T20:20:53;19.43;48.05
75964;DHT22;65820;44.726;37.764;2023-02-28T20:22:43;19.45;47.87
75964;DHT22;65820;44.726;37.764;2023-02-28T20:23:45;19.48;47.83
75964;DHT22;65820;44.726;37.764;2023-02-28T20:24:48;19.48;47.96
75964;DHT22;65820;44.726;37.764;2023-02-28T20:25:50;19.50;47.83
75964;DHT22;65820;44.726;37.764;2023-02-28T20:26:52;19.51;47.10
75964;DHT22;65820;44.726;37.764;2023-02-28T20:27:53;19.53;47.42
75964;DHT22;65820;44.726;37.764;2023-02-28T20:29:43;19.52;47.59
75964;DHT22;65820;44.726;37.764;2023-02-28T20:31:33;19.53;47.90
75964;DHT22;65820;44.726;37.764;2023-02-28T20:33:25;19.55;48.03
75964;DHT22;65820;44.726;37.764;2023-02-28T20:35:15;19.55;48.06
75964;DHT22;65820;44.726;37.764;2023-02-28T20:37:04;19.55;47.87
75964;DHT22;65820;44.726;37.764;2023-02-28T20:38:54;19.55;47.97
75964;DHT22;65820;44.726;37.764;2023-02-28T20:39:55;19.57;47.97
75964;DHT22;65820;44.726;37.764;2023-02-28T20:41:00;19.57;47.99
75964;DHT22;65820;44.726;37.764;2023-02-28T20:45:36;19.58;48.05
75964;DHT22;65820;44.726;37.764;2023-02-28T20:46:39;19.58;48.14
75964;DHT22;65820;44.726;37.764;2023-02-28T20:48:43;19.59;47.91
75964;DHT22;65820;44.726;37.764;2023-02-28T20:49:45;19.59;48.01
75964;DHT22;65820;44.726;37.764;2023-02-28T20:50:50;19.59;48.05
75964;DHT22;65820;44.726;37.764;2023-02-28T20:51:52;19.59;48.09
75964;DHT22;65820;44.726;37.764;2023-02-28T20:55:24;19.60;48.11
75964;DHT22;65820;44.726;37.764;2023-02-28T20:56:26;19.59;48.18
75964;DHT22;65820;44.726;37.764;2023-02-28T20:58:24;19.59;48.16
75964;DHT22;65820;44.726;37.764;2023-02-28T21:02:46;19.59;48.14
75964;DHT22;65820;44.726;37.764;2023-02-28T21:03:55;19.59;48.18
75964;DHT22;65820;44.726;37.764;2023-02-28T21:07:51;19.60;48.21
75964;DHT22;65820;44.726;37.764;2023-02-28T21:08:53;19.60;48.17
75964;DHT22;65820;44.726;37.764;2023-02-28T21:10:43;19.59;48.24
75964;DHT22;65820;44.726;37.764;2023-02-28T21:11:44;19.60;48.25
75964;DHT22;65820;44.726;37.764;2023-02-28T21:12:49;19.60;48.25
75964;DHT22;65820;44.726;37.764;2023-02-28T21:15:37;19.60;48.29
75964;DHT22;65820;44.726;37.764;2023-02-28T21:19:50;19.60;48.32
75964;DHT22;65820;44.726;37.764;2023-02-28T21:25:03;19.59;48.43
75964;DHT22;65820;44.726;37.764;2023-02-28T21:26:52;19.60;48.38
75964;DHT22;65820;44.726;37.764;2023-02-28T21:27:56;19.60;48.47
75964;DHT22;65820;44.726;37.764;2023-02-28T21:28:59;19.60;48.46
75964;DHT22;65820;44.726;37.764;2023-02-28T21:30:01;19.61;48.43
75964;DHT22;65820;44.726;37.764;2023-02-28T21:31:07;19.60;48.45
75964;DHT22;65820;44.726;37.764;2023-02-28T21:32:09;19.61;48.37
75964;DHT22;65820;44.726;37.764;2023-02-28T21:33:10;19.60;48.44
75964;DHT22;65820;44.726;37.764;2023-02-28T21:35:15;19.60;48.50
75964;DHT22;65820;44.726;37.764;2023-02-28T21:37:03;19.61;48.44
75964;DHT22;65820;44.726;37.764;2023-02-28T21:38:04;19.62;48.42
75964;DHT22;65820;44.726;37.764;2023-02-28T21:40:14;19.62;48.50
75964;DHT22;65820;44.726;37.764;2023-02-28T21:42:03;19.61;48.39
75964;DHT22;65820;44.726;37.764;2023-02-28T21:43:54;19.63;48.38
75964;DHT22;65820;44.726;37.764;2023-02-28T21:44:56;19.63;48.46
75964;DHT22;65820;44.726;37.764;2023-02-28T21:48:44;19.66;48.88
75964;DHT22;65820;44.726;37.764;2023-02-28T21:49:45;19.66;48.76
75964;DHT22;65820;44.726;37.764;2023-02-28T21:51:34;19.66;48.73
75964;DHT22;65820;44.726;37.764;2023-02-28T21:52:35;19.66;48.72
75964;DHT22;65820;44.726;37.764;2023-02-28T21:53:38;19.66;48.70
75964;DHT22;65820;44.726;37.764;2023-02-28T21:54:40;19.66;48.76
75964;DHT22;65820;44.726;37.764;2023-02-28T21:56:32;19.67;48.76
75964;DHT22;65820;44.726;37.764;2023-02-28T22:00:53;19.68;48.79
75964;DHT22;65820;44.726;37.764;2023-02-28T22:01:55;19.67;48.78
75964;DHT22;65820;44.726;37.764;2023-02-28T22:02:56;19.66;48.79
75964;DHT22;65820;44.726;37.764;2023-02-28T22:03:58;19.67;48.79
75964;DHT22;65820;44.726;37.764;2023-02-28T22:04:59;19.67;48.82
75964;DHT22;65820;44.726;37.764;2023-02-28T22:06:17;19.67;48.99
75964;DHT22;65820;44.726;37.764;2023-02-28T22:08:56;19.67;48.95
75964;DHT22;65820;44.726;37.764;2023-02-28T22:10:46;19.66;48.92
75964;DHT22;65820;44.726;37.764;2023-02-28T22:11:48;19.67;48.90
75964;DHT22;65820;44.726;37.764;2023-02-28T22:12:50;19.68;48.93
75964;DHT22;65820;44.726;37.764;2023-02-28T22:13:54;19.68;48.92
75964;DHT22;65820;44.726;37.764;2023-02-28T22:15:47;19.68;48.92
75964;DHT22;65820;44.726;37.764;2023-02-28T22:17:36;19.67;48.90
75964;DHT22;65820;44.726;37.764;2023-02-28T22:18:38;19.67;48.92
75964;DHT22;65820;44.726;37.764;2023-02-28T22:21:18;19.69;48.99
75964;DHT22;65820;44.726;37.764;2023-02-28T22:22:20;19.68;48.98
75964;DHT22;65820;44.726;37.764;2023-02-28T22:24:09;19.68;48.96
75964;DHT22;65820;44.726;37.764;2023-02-28T22:25:11;19.68;49.02
75964;DHT22;65820;44.726;37.764;2023-02-28T22:27:30;19.69;49.02
75964;DHT22;65820;44.726;37.764;2023-02-28T22:28:31;19.69;49.00
75964;DHT22;65820;44.726;37.764;2023-02-28T22:29:33;19.69;49.05
75964;DHT22;65820;44.726;37.764;2023-02-28T22:30:35;19.69;49.02
75964;DHT22;65820;44.726;37.764;2023-02-28T22:32:24;19.68;48.99
75964;DHT22;65820;44.726;37.764;2023-02-28T22:34:28;19.68;48.99
75964;DHT22;65820;44.726;37.764;2023-02-28T22:36:18;19.69;48.97
75964;DHT22;65820;44.726;37.764;2023-02-28T22:38:08;19.69;49.05
75964;DHT22;65820;44.726;37.764;2023-02-28T22:41:13;19.68;49.05
75964;DHT22;65820;44.726;37.764;2023-02-28T22:43:03;19.69;49.04
75964;DHT22;65820;44.726;37.764;2023-02-28T22:45:48;19.66;49.08
75964;DHT22;65820;44.726;37.764;2023-02-28T22:46:53;19.69;49.06
75964;DHT22;65820;44.726;37.764;2023-02-28T22:48:42;19.68;49.13
75964;DHT22;65820;44.726;37.764;2023-02-28T22:49:44;19.69;49.10
75964;DHT22;65820;44.726;37.764;2023-02-28T22:51:33;19.68;49.10
75964;DHT22;65820;44.726;37.764;2023-02-28T22:53:23;19.67;49.09
75964;DHT22;65820;44.726;37.764;2023-02-28T22:55:27;19.67;49.13
75964;DHT22;65820;44.726;37.764;2023-02-28T22:56:29;19.67;49.18
75964;DHT22;65820;44.726;37.764;2023-02-28T22:57:31;19.67;49.14
75964;DHT22;65820;44.726;37.764;2023-02-28T22:58:32;19.68;49.15
75964;DHT22;65820;44.726;37.764;2023-02-28T22:59:33;19.67;49.15
75964;DHT22;65820;44.726;37.764;2023-02-28T23:00:35;19.68;49.12
75964;DHT22;65820;44.726;37.764;2023-02-28T23:01:37;19.67;49.15
75964;DHT22;65820;44.726;37.764;2023-02-28T23:02:44;19.68;49.15
75964;DHT22;65820;44.726;37.764;2023-02-28T23:03:46;19.68;49.15
75964;DHT22;65820;44.726;37.764;2023-02-28T23:05:42;19.69;49.12
75964;DHT22;65820;44.726;37.764;2023-02-28T23:06:44;19.68;49.16
75964;DHT22;65820;44.726;37.764;2023-02-28T23:07:46;19.69;49.13
75964;DHT22;65820;44.726;37.764;2023-02-28T23:08:48;19.69;49.14
75964;DHT22;65820;44.726;37.764;2023-02-28T23:09:50;19.68;49.18
75964;DHT22;65820;44.726;37.764;2023-02-28T23:10:51;19.69;49.19
75964;DHT22;65820;44.726;37.764;2023-02-28T23:11:52;19.68;49.12
75964;DHT22;65820;44.726;37.764;2023-02-28T23:12:54;19.69;49.13
75964;DHT22;65820;44.726;37.764;2023-02-28T23:13:55;19.70;49.11
75964;DHT22;65820;44.726;37.764;2023-02-28T23:15:00;19.70;49.13
75964;DHT22;65820;44.726;37.764;2023-02-28T23:16:05;19.70;49.14
75964;DHT22;65820;44.726;37.764;2023-02-28T23:18:02;19.69;49.14
75964;DHT22;65820;44.726;37.764;2023-02-28T23:19:07;19.69;49.13
75964;DHT22;65820;44.726;37.764;2023-02-28T23:21:52;19.70;49.15
75964;DHT22;65820;44.726;37.764;2023-02-28T23:23:41;19.69;49.13
75964;DHT22;65820;44.726;37.764;2023-02-28T23:26:22;19.69;49.16
75964;DHT22;65820;44.726;37.764;2023-02-28T23:27:23;19.69;49.18
75964;DHT22;65820;44.726;37.764;2023-02-28T23:29:21;19.68;49.16
75964;DHT22;65820;44.726;37.764;2023-02-28T23:31:19;19.69;49.18
75964;DHT22;65820;44.726;37.764;2023-02-28T23:33:56;19.67;49.20
75964;DHT22;65820;44.726;37.764;2023-02-28T23:36:42;19.67;49.23
75964;DHT22;65820;44.726;37.764;2023-02-28T23:37:45;19.67;49.21
75964;DHT22;65820;44.726;37.764;2023-02-28T23:38:48;19.67;49.21
75964;DHT22;65820;44.726;37.764;2023-02-28T23:39:50;19.68;49.26
75964;DHT22;65820;44.726;37.764;2023-02-28T23:40:51;19.67;49.30
75964;DHT22;65820;44.726;37.764;2023-02-28T23:43:10;19.67;49.29
75964;DHT22;65820;44.726;37.764;2023-02-28T23:44:11;19.67;49.27
75964;DHT22;65820;44.726;37.764;2023-02-28T23:45:17;19.67;49.28
75964;DHT22;65820;44.726;37.764;2023-02-28T23:46:20;19.67;49.34
75964;DHT22;65820;44.726;37.764;2023-02-28T23:47:21;19.66;49.30
75964;DHT22;65820;44.726;37.764;2023-02-28T23:48:23;19.67;49.37
75964;DHT22;65820;44.726;37.764;2023-02-28T23:49:24;19.67;49.32
75964;DHT22;65820;44.726;37.764;2023-02-28T23:50:25;19.67;49.31
75964;DHT22;65820;44.726;37.764;2023-02-28T23:51:26;19.67;49.36
75964;DHT22;65820;44.726;37.764;2023-02-28T23:52:28;19.67;49.25
75964;DHT22;65820;44.726;37.764;2023-02-28T23:53:32;19.67;49.29
75964;DHT22;65820;44.726;37.764;2023-02-28T23:54:34;19.68;49.29
75964;DHT22;65820;44.726;37.764;2023-02-28T23:55:35;19.68;49.33
75964;DHT22;65820;44.726;37.764;2023-02-28T23:56:40;19.67;49.31
75964;DHT22;65820;44.726;37.764;2023-02-28T23:58:30;19.67;49.27
75964;DHT22;65820;44.726;37.764;2023-02-28T23:59:31;19.68;49.27
